This demonstration page uses our WeatherBlox Daily Observations layout. Learn more.

38.88101, -77.10428

Hourly Observations for January 26, 2016

Temp ( °F °C ) Dew Point ( °F °C ) Humidity (%) Winds ( mph kmh ) Pressure ( in mb ) Visibility ( mi km ) Precip ( " mm )
12:52 am 00:52 Mostly Cloudy 36 2 27 -3 70 70 SW 5 7 30.18 1022 10 16.09344 0 0
1:52 am 01:52 Mostly Cloudy 34 1 25 -4 70 70 Calm 30.15 1021 10 16.09344 0 0
2:52 am 02:52 Mostly Cloudy 32 0 25 -4 75 75 S 9 15 30.15 1021 10 16.09344 0 0
3:52 am 03:52 Mostly Cloudy 36 2 25 -4 65 65 S 16 26 30.12 1020 10 16.09344 0 0
4:52 am 04:52 Cloudy 36 2 25 -4 65 65 SSW 7 11 30.12 1020 10 16.09344 0 0
5:52 am 05:52 Mostly Cloudy 37 3 27 -3 65 65 Calm 30.12 1020 10 16.09344 0 0
6:52 am 06:52 Cloudy 36 2 27 -3 70 70 S 7 11 30.12 1020 10 16.09344 0 0
7:52 am 07:52 Cloudy 37 3 28 -2 70 70 Calm 30.12 1020 10 16.09344 0 0
8:52 am 08:52 Cloudy 37 3 30 -1 75 75 S 9 15 30.12 1020 10 16.09344 0.001 0.001
9:52 am 09:52 Cloudy 41 5 30 -1 66 66 SSW 7 11 30.12 1020 10 16.09344 0 0
10:52 am 10:52 Cloudy 41 5 30 -1 66 66 S 12 19 30.09 1019 10 16.09344 0 0
11:52 am 11:52 Cloudy 45 7 30 -1 57 57 SSW 8 13 30.06 1018 10 16.09344 0 0
12:52 pm 12:52 Cloudy 46 8 30 -1 53 53 SSW 9 15 30.03 1017 10 16.09344 0 0
1:52 pm 13:52 Cloudy 52 11 30 -1 44 44 SSW 12 19 30 1016 10 16.09344 0 0
2:52 pm 14:52 Cloudy 48 9 30 -1 50 50 SSW 14 22 30 1016 10 16.09344 0 0
3:52 pm 15:52 Mostly Cloudy 50 10 32 0 50 50 S 16 26 30 1016 10 16.09344 0 0
4:52 pm 16:52 Cloudy 48 9 34 1 58 58 SSW 13 20 30 1016 10 16.09344 0 0
5:52 pm 17:52 Cloudy 52 11 34 1 50 50 SSW 8 13 30.03 1017 10 16.09344 0 0
6:52 pm 18:52 Cloudy with Light Rain 43 6 36 2 76 76 S 9 15 30 1016 10 16.09344 0.001 0.001
7:52 pm 19:52 Cloudy 46 8 36 2 66 66 SSW 7 11 30.03 1017 10 16.09344 0.001 0.001
8:52 pm 20:52 Mostly Cloudy 45 7 36 2 71 71 S 8 13 30 1016 10 16.09344 0 0
9:52 pm 21:52 Cloudy 43 6 34 1 71 71 SSW 3 6 30 1016 10 16.09344 0 0
10:52 pm 22:52 Cloudy 45 7 36 2 71 71 S 3 6 30 1016 10 16.09344 0 0
11:52 pm 23:52 Cloudy 45 7 36 2 71 71 S 7 11 30 1016 10 16.09344 0 0

Powered by AerisWeather